Airfield :
LOGIN :

Register | Disclaimer

   EN    FR    IT 

 










Legend :    VFR   Marginal VFR   IFR   Intensive IFR   Very Intensive IFR
Visi :
Ceiling :
>= 8 km
>= 3000ft
5 to 8 km
1000 to 3000 ft
1500m to 5 km
500 to 1000 ft
800 to 1500m
200 to 500 ft
< 800m
< 200 ft
Symbols :   Thunderstorms  Fog  Heavy snow  Heavy precipitations  Wind > 20 kt
SIGMETs :     Misc.  Thunderstorms  Icing  Turbulence  Mountain Waves  Volcanic Ashes







- Airport Elevation : 13 ft
- IATA code : OST


EBOS - Oostend bruges Int.

CURRENT METAR :
  • 220350Z 17003KT 7000 -RA SCT016 BKN046 13/12 Q1019 NOSIG

EXPIRED METARs :
  • 220320Z 20002KT 6000 -RA SCT015 BKN038 13/12 Q1019 NOSIG
  • 220250Z 22004KT 7000 -RA SCT015 BKN042 13/11 Q1019 NOSIG
  • 220220Z 22005KT 9999 -RA SCT015 BKN042 13/12 Q1019 NOSIG
  • 220150Z VRB02KT 9999 SCT015 BKN042 13/11 Q1019 NOSIG
  • 220120Z 24003KT 9999 SCT015 BKN042 13/11 Q1019 NOSIG

TAF TAF EBOS
Valid from the 21 at 18:00 until the 23 at 00:00 UTC


211710Z 2118/2224 17006KT 9999 FEW020 SCT040
TEMPO 2122/2203 4500 -RADZ SCT008 BKN013
BECMG 2201/2204 33010KT
No reported NOTAMs for that airfield.



MET'MAP, your aeronautical weather chart ! - Copyright ORBIFLY December 2007 - Disclaimer

ORBIFLY MET'MAP TEAM :

Programming & Development : Alexandra Zaïnal
Concept & Development : Baudouin d'Aumeries
Co-Development & Prog : Marc-Olivier Méhu
Technical & hardware support : Manuel Goepfert

Contact : metmap@orbifly.com




SOURCES & CREDITS :

   NOAA